createdAt,value
2022-09-29T00:02:11.217Z,75.80
2022-09-29T00:04:38.252Z,75.90
2022-09-29T00:07:05.125Z,75.80
2022-09-29T00:09:32.289Z,75.90
2022-09-29T00:11:59.259Z,75.90
2022-09-29T00:14:26.368Z,76.00
2022-09-29T00:16:53.491Z,76.00
2022-09-29T00:19:20.712Z,76.10
2022-09-29T00:21:47.576Z,76.10
2022-09-29T00:24:14.541Z,76.20
2022-09-29T00:26:41.488Z,76.30
2022-09-29T00:29:10.752Z,76.30
2022-09-29T00:31:37.665Z,76.30
2022-09-29T00:34:04.895Z,76.20
2022-09-29T00:36:31.869Z,76.20
2022-09-29T00:38:59.625Z,76.20
2022-09-29T00:41:29.113Z,76.40
2022-09-29T00:43:57.003Z,76.50
2022-09-29T00:46:26.992Z,76.50
2022-09-29T00:48:57.005Z,76.50
2022-09-29T00:51:25.464Z,76.60
2022-09-29T00:53:52.435Z,76.60
2022-09-29T00:56:20.984Z,76.70
2022-09-29T00:58:55.016Z,76.70
2022-09-29T01:01:23.836Z,76.70
2022-09-29T01:03:56.948Z,76.70
2022-09-29T01:06:33.581Z,76.70
2022-09-29T01:09:04.181Z,76.70
2022-09-29T01:11:31.540Z,76.70
2022-09-29T01:14:03.800Z,76.70
2022-09-29T01:16:35.235Z,76.70
2022-09-29T01:19:09.847Z,76.70
2022-09-29T01:21:58.440Z,76.70
2022-09-29T01:24:50.023Z,76.70
2022-09-29T01:27:37.788Z,76.60
2022-09-29T01:30:04.744Z,76.50
2022-09-29T01:32:39.652Z,76.50
2022-09-29T01:35:39.241Z,76.40
2022-09-29T01:38:23.454Z,76.30
2022-09-29T01:40:56.141Z,76.20
2022-09-29T01:43:43.202Z,76.00
2022-09-29T01:46:21.848Z,75.90
2022-09-29T01:48:52.591Z,75.70
2022-09-29T01:51:32.193Z,75.60
2022-09-29T01:54:06.395Z,75.50
2022-09-29T01:56:40.250Z,75.40
2022-09-29T01:59:28.022Z,75.30
2022-09-29T02:02:02.844Z,75.30
2022-09-29T02:04:40.543Z,75.30
2022-09-29T02:07:22.948Z,75.20
2022-09-29T02:09:55.275Z,75.10
2022-09-29T02:12:26.844Z,75.00
2022-09-29T02:14:55.533Z,75.00
2022-09-29T02:17:28.267Z,75.00
2022-09-29T02:19:55.650Z,75.00
2022-09-29T02:22:22.643Z,74.90
2022-09-29T02:24:54.403Z,74.90
2022-09-29T02:27:22.820Z,74.90
2022-09-29T02:29:50.873Z,74.90
2022-09-29T02:32:20.011Z,74.90
2022-09-29T02:34:50.682Z,74.90
2022-09-29T02:37:29.659Z,74.90
2022-09-29T02:40:08.735Z,75.00
2022-09-29T02:42:55.871Z,75.00
2022-09-29T02:45:38.164Z,75.00
2022-09-29T02:48:26.773Z,74.80
2022-09-29T02:51:21.693Z,74.80
2022-09-29T02:53:57.345Z,74.80
2022-09-29T02:56:35.925Z,74.70
2022-09-29T02:59:25.279Z,74.70
2022-09-29T03:01:54.404Z,74.70
2022-09-29T03:04:24.376Z,74.70
2022-09-29T03:06:51.537Z,74.70
2022-09-29T03:09:18.537Z,74.70
2022-09-29T03:11:45.951Z,74.80
2022-09-29T03:14:13.127Z,74.80
2022-09-29T03:16:40.311Z,74.80
2022-09-29T03:19:07.821Z,74.90
2022-09-29T03:21:35.607Z,74.90
2022-09-29T03:24:02.619Z,74.80
2022-09-29T03:26:30.301Z,74.80
2022-09-29T03:28:57.523Z,74.80
2022-09-29T03:31:24.625Z,74.80
2022-09-29T03:33:51.541Z,74.80
2022-09-29T03:36:18.559Z,74.80
2022-09-29T03:38:47.105Z,74.90
2022-09-29T03:41:14.223Z,74.90
2022-09-29T03:43:41.294Z,74.80
2022-09-29T03:46:08.339Z,74.90
2022-09-29T03:48:35.478Z,74.90
2022-09-29T03:51:02.704Z,74.90
2022-09-29T03:53:29.706Z,74.90
2022-09-29T03:55:56.696Z,75.00
2022-09-29T03:58:23.599Z,75.00
2022-09-29T04:00:50.585Z,75.00
2022-09-29T04:03:17.738Z,75.00
2022-09-29T04:05:48.831Z,75.00
2022-09-29T04:08:16.152Z,75.00
2022-09-29T04:10:43.329Z,74.90
2022-09-29T04:13:10.354Z,74.90
2022-09-29T04:15:37.263Z,75.00
2022-09-29T04:18:04.836Z,75.20
2022-09-29T04:20:31.779Z,75.30
2022-09-29T04:22:59.192Z,75.40
2022-09-29T04:25:26.103Z,75.50
2022-09-29T04:27:53.051Z,75.60
2022-09-29T04:30:20.103Z,75.60
2022-09-29T04:32:47.106Z,75.70
2022-09-29T04:35:14.045Z,75.70
2022-09-29T04:37:40.977Z,75.60
2022-09-29T04:40:08.323Z,75.60
2022-09-29T04:42:35.462Z,75.70
2022-09-29T04:45:02.381Z,75.80
2022-09-29T04:47:29.324Z,75.80
2022-09-29T04:49:56.236Z,75.90
2022-09-29T04:52:23.284Z,75.80
2022-09-29T04:54:50.139Z,75.70
2022-09-29T04:57:17.221Z,75.70
2022-09-29T04:59:44.106Z,75.60
2022-09-29T05:02:11.123Z,75.60
2022-09-29T05:04:38.081Z,75.60
2022-09-29T05:07:05.004Z,75.50
2022-09-29T05:09:33.919Z,75.50
2022-09-29T05:12:02.077Z,75.50
2022-09-29T05:14:29.011Z,75.50
2022-09-29T05:16:57.000Z,75.50
2022-09-29T05:19:23.958Z,75.50
2022-09-29T05:21:51.048Z,75.50
2022-09-29T05:24:17.912Z,75.40
2022-09-29T05:26:44.923Z,75.40
2022-09-29T05:29:11.862Z,75.40
2022-09-29T05:31:38.973Z,75.40
2022-09-29T05:34:05.984Z,75.40
2022-09-29T05:36:32.884Z,75.40
2022-09-29T05:38:59.760Z,75.40
2022-09-29T05:41:26.919Z,75.30
2022-09-29T05:43:55.152Z,75.30
2022-09-29T05:46:22.864Z,75.20
2022-09-29T05:48:53.331Z,75.20
2022-09-29T05:51:23.317Z,75.20
2022-09-29T05:53:51.173Z,75.20
2022-09-29T05:56:20.953Z,75.30
2022-09-29T05:58:47.907Z,75.30
2022-09-29T06:01:17.342Z,75.30
2022-09-29T06:03:46.242Z,75.30
2022-09-29T06:06:15.740Z,75.30
2022-09-29T06:08:43.719Z,75.30
2022-09-29T06:11:17.183Z,75.40
2022-09-29T06:13:46.200Z,75.40
2022-09-29T06:16:14.147Z,75.40
2022-09-29T06:18:41.268Z,75.50
2022-09-29T06:21:13.858Z,75.40
2022-09-29T06:23:41.517Z,75.40
2022-09-29T06:26:11.223Z,75.60
2022-09-29T06:28:38.356Z,75.80
2022-09-29T06:31:08.267Z,75.90
2022-09-29T06:33:36.808Z,75.90
2022-09-29T06:36:32.878Z,76.00
2022-09-29T06:39:00.462Z,76.10
2022-09-29T06:41:28.721Z,76.20
2022-09-29T06:43:56.012Z,76.20
2022-09-29T06:46:23.320Z,76.30
2022-09-29T06:48:50.324Z,76.40
2022-09-29T06:51:17.236Z,76.50
2022-09-29T06:53:45.342Z,76.60
2022-09-29T06:56:12.232Z,76.60
2022-09-29T06:58:40.021Z,76.60
2022-09-29T07:01:07.283Z,76.70
2022-09-29T07:03:35.410Z,76.70
2022-09-29T07:06:20.556Z,76.80
2022-09-29T07:08:47.922Z,76.90
2022-09-29T07:11:16.610Z,76.90
2022-09-29T07:13:43.752Z,76.90
2022-09-29T07:16:13.685Z,77.00
2022-09-29T07:18:42.804Z,77.10
2022-09-29T07:21:12.040Z,77.20
2022-09-29T07:23:39.703Z,77.40
2022-09-29T07:26:07.252Z,77.50
2022-09-29T07:28:35.564Z,77.60
2022-09-29T07:31:15.242Z,77.70
2022-09-29T07:33:44.254Z,77.90
2022-09-29T07:36:11.950Z,78.10
2022-09-29T07:38:38.878Z,78.30
2022-09-29T07:41:12.332Z,78.50
2022-09-29T07:43:40.072Z,78.70
2022-09-29T07:46:08.165Z,78.90
2022-09-29T07:48:36.585Z,79.20
2022-09-29T07:51:23.806Z,79.40
2022-09-29T07:53:51.291Z,79.60
2022-09-29T07:56:21.130Z,79.80
2022-09-29T07:58:49.965Z,79.90
2022-09-29T08:01:18.182Z,79.90
2022-09-29T08:03:50.057Z,80.10
2022-09-29T08:06:17.076Z,80.20
2022-09-29T08:08:55.695Z,80.20
2022-09-29T08:11:31.569Z,80.30
2022-09-29T08:14:00.510Z,80.40
2022-09-29T08:16:27.863Z,80.30
2022-09-29T08:18:55.030Z,80.30
2022-09-29T08:21:21.967Z,80.20
2022-09-29T08:23:48.955Z,80.20
2022-09-29T08:26:20.109Z,80.20
2022-09-29T08:29:05.323Z,80.40
2022-09-29T08:31:35.376Z,80.50
2022-09-29T08:34:02.298Z,80.60
2022-09-29T08:36:29.492Z,80.80
2022-09-29T08:38:57.416Z,80.80
2022-09-29T08:41:39.431Z,80.90
2022-09-29T08:44:30.438Z,81.00
2022-09-29T08:47:11.096Z,81.20
2022-09-29T08:49:48.181Z,81.50
2022-09-29T08:52:22.871Z,81.60
2022-09-29T08:54:53.912Z,81.80
2022-09-29T08:57:22.062Z,81.70
2022-09-29T09:00:00.183Z,81.60
2022-09-29T09:02:50.825Z,81.50
2022-09-29T09:05:39.596Z,81.10
2022-09-29T09:08:26.872Z,80.70
2022-09-29T09:11:14.568Z,80.30
2022-09-29T09:13:53.343Z,80.20
2022-09-29T09:16:38.338Z,80.10
2022-09-29T09:19:32.605Z,79.90
2022-09-29T09:22:19.333Z,79.70
2022-09-29T09:25:04.776Z,79.40
2022-09-29T09:27:37.236Z,79.00
2022-09-29T09:30:14.697Z,78.50
2022-09-29T09:32:49.207Z,78.10
2022-09-29T09:35:58.379Z,77.80
2022-09-29T09:38:34.419Z,77.40
2022-09-29T09:41:02.243Z,77.10
2022-09-29T09:43:29.112Z,76.50
2022-09-29T09:46:20.276Z,75.90
2022-09-29T09:48:57.795Z,75.30
2022-09-29T09:51:40.067Z,74.30
2022-09-29T09:54:15.733Z,73.50
2022-09-29T09:57:01.948Z,72.70
2022-09-29T09:59:44.115Z,72.60
2022-09-29T10:02:20.470Z,72.20
2022-09-29T10:04:53.194Z,71.80
2022-09-29T10:07:22.562Z,70.90
2022-09-29T10:09:50.406Z,70.40
2022-09-29T10:12:23.569Z,70.20
2022-09-29T10:15:18.499Z,69.90
2022-09-29T10:17:50.723Z,68.30
2022-09-29T10:20:33.544Z,68.10
2022-09-29T10:23:23.946Z,67.90
2022-09-29T10:26:05.412Z,67.70
2022-09-29T10:28:51.056Z,67.20
2022-09-29T10:31:34.394Z,66.60
2022-09-29T10:34:15.348Z,65.80
2022-09-29T10:36:58.572Z,65.10
2022-09-29T10:39:48.363Z,65.20
2022-09-29T10:42:34.698Z,64.70
2022-09-29T10:45:12.273Z,64.50
2022-09-29T10:47:39.784Z,64.30
2022-09-29T10:50:23.937Z,64.30
2022-09-29T10:52:59.516Z,64.10
2022-09-29T10:55:32.274Z,64.00
2022-09-29T10:58:44.676Z,63.50
2022-09-29T11:01:21.875Z,62.50
2022-09-29T11:04:15.848Z,62.30
2022-09-29T11:06:44.231Z,62.20
2022-09-29T11:09:15.763Z,61.60
2022-09-29T11:11:49.044Z,61.20
2022-09-29T11:14:32.532Z,61.20
2022-09-29T11:17:01.987Z,60.80
2022-09-29T11:19:32.039Z,60.60
2022-09-29T11:22:29.376Z,60.20
2022-09-29T11:25:10.706Z,60.10
2022-09-29T11:28:11.233Z,59.60
2022-09-29T11:30:47.311Z,58.90
2022-09-29T11:33:33.582Z,58.40
2022-09-29T11:36:21.345Z,58.50
2022-09-29T11:39:23.949Z,58.60
2022-09-29T11:42:03.296Z,58.80
2022-09-29T11:44:49.594Z,58.70
2022-09-29T11:47:47.819Z,58.20
2022-09-29T11:50:42.867Z,58.50
2022-09-29T11:53:12.627Z,58.60
2022-09-29T11:55:53.390Z,57.40
2022-09-29T11:58:42.391Z,56.90
2022-09-29T12:01:19.168Z,57.40
2022-09-29T12:04:15.601Z,58.00
2022-09-29T12:07:02.687Z,58.40
2022-09-29T12:09:41.591Z,58.60
2022-09-29T12:12:25.316Z,58.80
2022-09-29T12:15:17.971Z,58.80
2022-09-29T12:17:48.775Z,58.80
2022-09-29T12:20:18.922Z,58.90
2022-09-29T12:22:48.379Z,59.20
2022-09-29T12:25:19.079Z,59.60
2022-09-29T12:27:48.563Z,59.90
2022-09-29T12:30:30.050Z,60.20
2022-09-29T12:32:58.560Z,60.10
2022-09-29T12:35:32.940Z,59.90
2022-09-29T12:38:15.000Z,59.60
2022-09-29T12:41:04.992Z,59.30
2022-09-29T12:43:54.963Z,58.90
2022-09-29T12:46:46.286Z,56.50
2022-09-29T12:49:26.727Z,55.90
2022-09-29T12:51:56.509Z,56.60
2022-09-29T12:54:30.360Z,56.10
2022-09-29T12:57:09.025Z,55.60
2022-09-29T12:59:52.755Z,54.90
2022-09-29T13:03:01.963Z,54.70
2022-09-29T13:05:41.014Z,55.00
2022-09-29T13:08:40.045Z,55.30
2022-09-29T13:11:22.505Z,55.70
2022-09-29T13:13:52.338Z,56.30
2022-09-29T13:16:37.987Z,56.60
2022-09-29T13:19:52.355Z,57.20
2022-09-29T13:22:38.684Z,57.70
2022-09-29T13:25:28.431Z,58.20
2022-09-29T13:27:57.313Z,58.60
2022-09-29T13:30:36.742Z,58.90
2022-09-29T13:33:16.432Z,59.00
2022-09-29T13:35:47.172Z,59.20
2022-09-29T13:38:32.631Z,59.50
2022-09-29T13:41:12.387Z,59.80
2022-09-29T13:44:04.124Z,60.20
2022-09-29T13:46:31.093Z,59.70
2022-09-29T13:49:15.033Z,59.50
2022-09-29T13:51:41.963Z,59.70
2022-09-29T13:54:23.522Z,59.30
2022-09-29T13:57:14.284Z,57.90
2022-09-29T13:59:45.116Z,57.10
2022-09-29T14:02:26.586Z,56.80
2022-09-29T14:04:55.868Z,56.70
2022-09-29T14:07:44.241Z,56.70
2022-09-29T14:10:30.160Z,57.00
2022-09-29T14:13:07.805Z,57.10
2022-09-29T14:15:43.946Z,57.10
2022-09-29T14:18:31.083Z,57.20
2022-09-29T14:21:04.219Z,57.40
2022-09-29T14:23:47.204Z,57.40
2022-09-29T14:26:49.763Z,57.40
2022-09-29T14:29:24.483Z,56.50
2022-09-29T14:31:56.051Z,56.00
2022-09-29T14:34:25.864Z,55.80
2022-09-29T14:36:55.773Z,55.30
2022-09-29T14:39:32.411Z,55.30
2022-09-29T14:42:00.170Z,55.30
2022-09-29T14:44:51.553Z,55.20
2022-09-29T14:48:17.082Z,55.30
2022-09-29T14:51:27.677Z,55.60
2022-09-29T14:54:30.056Z,55.60
2022-09-29T14:57:23.549Z,55.10
2022-09-29T14:59:50.653Z,55.00
2022-09-29T15:02:26.837Z,54.70
2022-09-29T15:04:53.941Z,54.20
2022-09-29T15:07:23.926Z,53.90
2022-09-29T15:09:59.376Z,53.40
2022-09-29T15:12:29.355Z,52.90
2022-09-29T15:14:58.125Z,52.60
2022-09-29T15:17:45.958Z,52.30
2022-09-29T15:20:15.543Z,51.90
2022-09-29T15:22:59.007Z,51.80
2022-09-29T15:25:30.214Z,51.80
2022-09-29T15:28:04.102Z,52.00
2022-09-29T15:30:31.809Z,52.90
2022-09-29T15:33:17.433Z,53.60
2022-09-29T15:35:48.002Z,54.70
2022-09-29T15:38:30.182Z,55.00
2022-09-29T15:41:03.638Z,55.30
2022-09-29T15:43:44.329Z,55.50
2022-09-29T15:46:25.005Z,55.80
2022-09-29T15:49:21.939Z,55.90
2022-09-29T15:52:01.302Z,56.20
2022-09-29T15:54:41.777Z,56.70
2022-09-29T15:58:08.917Z,57.00
2022-09-29T16:00:38.992Z,57.40
2022-09-29T16:03:43.629Z,57.50
2022-09-29T16:06:18.900Z,57.60
2022-09-29T16:08:48.700Z,58.00
2022-09-29T16:11:26.083Z,58.30
2022-09-29T16:14:07.781Z,58.70
2022-09-29T16:16:40.806Z,59.00
2022-09-29T16:19:14.011Z,59.10
2022-09-29T16:21:42.110Z,59.10
2022-09-29T16:24:19.244Z,59.10
2022-09-29T16:26:57.291Z,59.00
2022-09-29T16:29:31.298Z,59.00
2022-09-29T16:31:59.900Z,59.10
2022-09-29T16:34:29.775Z,59.20
2022-09-29T16:37:01.709Z,59.20
2022-09-29T16:39:39.638Z,59.30
2022-09-29T16:42:09.022Z,59.60
2022-09-29T16:44:43.675Z,59.90
2022-09-29T16:47:10.639Z,60.10
2022-09-29T16:49:59.089Z,60.30
2022-09-29T16:52:47.219Z,60.50
2022-09-29T16:55:27.904Z,60.80
2022-09-29T16:58:03.650Z,61.00
2022-09-29T17:00:31.453Z,61.10
2022-09-29T17:02:58.702Z,61.20
2022-09-29T17:05:26.479Z,61.60
2022-09-29T17:08:04.383Z,61.90
2022-09-29T17:10:32.026Z,62.30
2022-09-29T17:12:59.033Z,62.70
2022-09-29T17:15:26.394Z,63.00
2022-09-29T17:17:53.378Z,63.40
2022-09-29T17:20:29.889Z,63.60
2022-09-29T17:22:59.973Z,63.70
2022-09-29T17:25:27.214Z,63.90
2022-09-29T17:28:12.473Z,64.20
2022-09-29T17:30:40.856Z,64.40
2022-09-29T17:33:09.739Z,64.70
2022-09-29T17:35:55.273Z,64.90
2022-09-29T17:38:24.025Z,65.20
2022-09-29T17:41:18.265Z,65.40
2022-09-29T17:43:46.724Z,65.70
2022-09-29T17:46:16.728Z,65.90
2022-09-29T17:48:44.012Z,66.10
2022-09-29T17:51:14.157Z,66.20
2022-09-29T17:53:41.651Z,66.50
2022-09-29T17:56:28.515Z,66.70
2022-09-29T17:58:55.712Z,66.90
2022-09-29T18:01:24.415Z,67.00
2022-09-29T18:03:51.997Z,67.20
2022-09-29T18:06:21.830Z,67.30
2022-09-29T18:08:54.109Z,67.50
2022-09-29T18:11:24.039Z,67.70
2022-09-29T18:13:51.436Z,67.80
2022-09-29T18:16:21.946Z,68.00
2022-09-29T18:18:49.548Z,68.10
2022-09-29T18:21:18.823Z,68.20
2022-09-29T18:23:46.520Z,68.40
2022-09-29T18:26:14.794Z,68.50
2022-09-29T18:28:48.429Z,68.60
2022-09-29T18:31:27.874Z,68.60
2022-09-29T18:33:55.280Z,68.70
2022-09-29T18:36:22.426Z,68.80
2022-09-29T18:38:49.408Z,68.80
2022-09-29T18:41:23.277Z,68.90
2022-09-29T18:43:50.185Z,69.00
2022-09-29T18:46:18.033Z,69.00
2022-09-29T18:48:45.878Z,69.10
2022-09-29T18:51:13.708Z,69.10
2022-09-29T18:53:42.137Z,69.20
2022-09-29T18:56:17.587Z,69.30
2022-09-29T18:58:45.102Z,69.40
2022-09-29T19:01:15.085Z,69.60
2022-09-29T19:03:43.194Z,69.70
2022-09-29T19:06:15.583Z,69.70
2022-09-29T19:08:44.483Z,69.80
2022-09-29T19:11:19.595Z,70.00
2022-09-29T19:13:47.674Z,70.10
2022-09-29T19:16:15.834Z,70.20
2022-09-29T19:18:42.913Z,70.30
2022-09-29T19:21:12.270Z,70.40
2022-09-29T19:23:42.609Z,70.50
2022-09-29T19:26:16.363Z,70.50
2022-09-29T19:28:43.800Z,70.60
2022-09-29T19:31:15.533Z,70.70
2022-09-29T19:33:43.237Z,70.70
2022-09-29T19:36:14.820Z,70.70
2022-09-29T19:38:42.509Z,70.70
2022-09-29T19:41:23.592Z,70.70
2022-09-29T19:43:51.415Z,70.80
2022-09-29T19:46:19.809Z,70.90
2022-09-29T19:48:47.073Z,70.90
2022-09-29T19:51:34.083Z,71.00
2022-09-29T19:54:15.175Z,71.00
2022-09-29T19:56:44.889Z,71.10
2022-09-29T19:59:14.185Z,71.20
2022-09-29T20:01:46.125Z,71.30
2022-09-29T20:04:14.567Z,71.30
2022-09-29T20:06:41.937Z,71.40
2022-09-29T20:09:09.443Z,71.40
2022-09-29T20:11:37.958Z,71.40
2022-09-29T20:14:06.631Z,71.40
2022-09-29T20:16:38.836Z,71.40
2022-09-29T20:19:07.260Z,71.40
2022-09-29T20:21:34.776Z,71.40
2022-09-29T20:24:01.999Z,71.50
2022-09-29T20:26:28.868Z,71.60
2022-09-29T20:28:55.890Z,71.60
2022-09-29T20:31:23.539Z,71.60
2022-09-29T20:33:51.591Z,71.60
2022-09-29T20:36:19.077Z,71.70
2022-09-29T20:38:47.531Z,71.70
2022-09-29T20:41:15.654Z,71.80
2022-09-29T20:43:46.168Z,71.80
2022-09-29T20:46:13.843Z,71.80
2022-09-29T20:48:41.897Z,71.90
2022-09-29T20:51:16.351Z,71.90
2022-09-29T20:53:50.059Z,72.00
2022-09-29T20:56:17.694Z,72.10
2022-09-29T20:58:46.791Z,72.20
2022-09-29T21:01:20.194Z,72.40
2022-09-29T21:03:58.387Z,72.40
2022-09-29T21:06:31.085Z,72.50
2022-09-29T21:08:59.026Z,72.50
2022-09-29T21:11:26.384Z,72.60
2022-09-29T21:13:56.848Z,72.70
2022-09-29T21:16:24.984Z,72.80
2022-09-29T21:18:53.472Z,73.00
2022-09-29T21:21:20.645Z,73.00
2022-09-29T21:23:47.697Z,73.10
2022-09-29T21:26:17.187Z,73.20
2022-09-29T21:28:52.047Z,73.20
2022-09-29T21:31:22.286Z,73.20
2022-09-29T21:33:57.337Z,73.30
2022-09-29T21:36:27.089Z,73.40
2022-09-29T21:38:54.532Z,73.40
2022-09-29T21:41:25.132Z,73.50
2022-09-29T21:43:57.756Z,73.40
2022-09-29T21:46:26.999Z,73.40
2022-09-29T21:48:59.103Z,73.40
2022-09-29T21:51:29.488Z,73.50
2022-09-29T21:54:01.401Z,73.60
2022-09-29T21:56:38.991Z,73.60
2022-09-29T21:59:07.119Z,73.60
2022-09-29T22:01:34.437Z,73.70
2022-09-29T22:04:02.536Z,73.70
2022-09-29T22:06:31.783Z,73.80
2022-09-29T22:08:59.882Z,73.90
2022-09-29T22:11:32.420Z,73.90
2022-09-29T22:14:01.079Z,73.90
2022-09-29T22:16:30.511Z,74.00
2022-09-29T22:19:22.466Z,74.10
2022-09-29T22:21:46.114Z,74.10
2022-09-29T22:24:13.135Z,74.10
2022-09-29T22:26:41.284Z,74.00
2022-09-29T22:29:08.505Z,74.00
2022-09-29T22:31:36.031Z,73.90
2022-09-29T22:34:05.167Z,73.90
2022-09-29T22:36:34.511Z,73.90
2022-09-29T22:39:02.374Z,73.80
2022-09-29T22:41:29.508Z,73.80
2022-09-29T22:43:59.328Z,73.80
2022-09-29T22:46:28.955Z,73.70
2022-09-29T22:48:56.588Z,73.70
2022-09-29T22:51:23.980Z,73.70
2022-09-29T22:53:51.765Z,73.70
2022-09-29T22:56:22.023Z,73.80
2022-09-29T22:58:49.592Z,73.90
2022-09-29T23:01:18.324Z,73.90
2022-09-29T23:03:46.082Z,74.00
2022-09-29T23:06:13.909Z,74.00
2022-09-29T23:08:41.777Z,74.10
2022-09-29T23:11:14.392Z,74.10
2022-09-29T23:13:42.447Z,74.10
2022-09-29T23:16:12.754Z,74.10
2022-09-29T23:18:44.800Z,74.20
2022-09-29T23:21:19.242Z,74.30
2022-09-29T23:24:06.988Z,74.40
2022-09-29T23:26:34.043Z,74.40
2022-09-29T23:29:00.995Z,74.50
2022-09-29T23:31:28.140Z,74.50
2022-09-29T23:33:59.892Z,74.60
2022-09-29T23:36:31.506Z,74.70
2022-09-29T23:39:10.875Z,74.80
2022-09-29T23:41:46.176Z,74.90
2022-09-29T23:44:16.015Z,74.90
2022-09-29T23:46:43.220Z,74.90
2022-09-29T23:49:15.995Z,74.90
2022-09-29T23:51:48.453Z,74.90
2022-09-29T23:54:18.193Z,74.90
2022-09-29T23:56:46.697Z,74.80
2022-09-29T23:59:13.980Z,74.80
